Accueil
METAR-TAF:

METAR-TAF

Aéroports :

Frosinone, Italie

latitude: 41-38N, longitude: 013-18E, altitude: 180 m

Observation

Le bulletin a été fait il y a 5 heures et 22 minutes, à 17:55 UTC
Vent 2 kt de nord-ouest
Température 11°C
Humidité 50%
Pression 1022 hPa
Visibilité 10 km ou plus
pas de nuages en-dessous de 1500 mètres et pas de cumulonimbus.

METAR: LIRH 211755Z 31002KT CAVOK 11/01 Q1022 RMK SKC MON INVIS VAR RAPID VIS MIN 9999 WIND THR16 /////KT BLU

Heure: 00:17 (23:17 UTC)

Prévision

Le bulletin a été fait il y a 9 heures et 17 minutes, à 14:00 UTC
Prévision valable du 21 à 15 UTC au 21 à 24 UTC
Vent 7 kt de ouest
Visibilité 10 km ou plus
pas de nuages en-dessous de 1500 mètres et pas de cumulonimbus.
Evoluant progressivement
du 21 à 17 UTC au 21 à 19 UTC
Vent 3 kt de direction variable

TAF: LIRH 211400Z 2115/2124 27007KT CAVOK BECMG 2117/2119 VRB03KT

Observations et prévisions météorologiques de plus de 4000 aéroports (messages METAR et TAF).

Les stations disponibles sont représentées par des disques jaunes et rouges sur la carte.

Passer la souris dessus pour voir le nom de la station.

Cliquer dessus pour voir les observations et prévisions météorologiques.

Pour changer de carte: cliquez sur les boutons verts avec une croix noire pour zoomer, sur le bouton vert avec un tiret pour effectuer un zoom arrière, ou sur les flèches vertes pour les cartes adjacentes.


METAR-TAF: